createdAt,value
2022-10-06T00:00:37.856Z,99948.00
2022-10-06T00:02:11.200Z,99949.00
2022-10-06T00:03:45.613Z,99967.00
2022-10-06T00:05:19.131Z,99968.00
2022-10-06T00:06:52.688Z,99970.00
2022-10-06T00:08:26.308Z,99976.00
2022-10-06T00:10:01.412Z,99971.00
2022-10-06T00:11:35.199Z,99970.00
2022-10-06T00:13:08.840Z,99975.00
2022-10-06T00:14:42.117Z,99983.00
2022-10-06T00:16:21.598Z,99979.00
2022-10-06T00:17:55.012Z,99971.00
2022-10-06T00:19:28.271Z,99977.00
2022-10-06T00:21:04.119Z,99985.00
2022-10-06T00:22:39.594Z,99989.00
2022-10-06T00:24:12.972Z,99992.00
2022-10-06T00:25:47.698Z,99995.00
2022-10-06T00:27:21.283Z,99989.00
2022-10-06T00:28:54.814Z,99989.00
2022-10-06T00:30:31.142Z,99985.00
2022-10-06T00:32:04.412Z,99975.00
2022-10-06T00:33:38.317Z,99977.00
2022-10-06T00:35:11.688Z,99973.00
2022-10-06T00:36:44.999Z,99983.00
2022-10-06T00:38:17.660Z,99977.00
2022-10-06T00:39:53.033Z,99981.00
2022-10-06T00:41:28.069Z,99998.00
2022-10-06T00:43:04.258Z,99996.00
2022-10-06T00:44:37.969Z,99982.00
2022-10-06T00:46:16.904Z,99990.00
2022-10-06T00:47:50.767Z,99994.00
2022-10-06T00:49:30.505Z,99996.00
2022-10-06T00:51:03.250Z,99999.00
2022-10-06T00:52:36.827Z,100000.00
2022-10-06T00:54:11.004Z,100000.00
2022-10-06T00:55:44.719Z,100002.00
2022-10-06T00:57:21.250Z,99997.00
2022-10-06T00:58:54.806Z,100004.00
2022-10-06T01:00:29.615Z,100008.00
2022-10-06T01:02:11.276Z,100008.00
2022-10-06T01:03:51.739Z,100005.00
2022-10-06T01:05:32.120Z,100009.00
2022-10-06T01:07:05.929Z,100010.00
2022-10-06T01:08:39.195Z,100011.00
2022-10-06T01:10:12.457Z,100012.00
2022-10-06T01:11:49.827Z,100016.00
2022-10-06T01:13:25.011Z,100013.00
2022-10-06T01:14:58.511Z,100027.00
2022-10-06T01:16:38.783Z,100028.00
2022-10-06T01:18:18.504Z,100028.00
2022-10-06T01:19:56.545Z,100033.00
2022-10-06T01:21:38.150Z,100037.00
2022-10-06T01:23:13.491Z,100033.00
2022-10-06T01:24:52.407Z,100040.00
2022-10-06T01:26:28.121Z,100053.00
2022-10-06T01:28:04.567Z,100057.00
2022-10-06T01:29:40.207Z,100045.00
2022-10-06T01:31:14.555Z,100049.00
2022-10-06T01:32:48.464Z,100053.00
2022-10-06T01:34:21.731Z,100057.00
2022-10-06T01:35:55.157Z,100057.00
2022-10-06T01:37:29.610Z,100067.00
2022-10-06T01:39:04.476Z,100070.00
2022-10-06T01:40:37.730Z,100061.00
2022-10-06T01:42:12.290Z,100061.00
2022-10-06T01:43:44.819Z,100073.00
2022-10-06T01:45:18.278Z,100064.00
2022-10-06T01:46:53.001Z,100075.00
2022-10-06T01:48:28.244Z,100083.00
2022-10-06T01:50:04.404Z,100076.00
2022-10-06T01:51:37.750Z,100067.00
2022-10-06T01:53:11.486Z,100078.00
2022-10-06T01:54:45.655Z,100074.00
2022-10-06T01:56:20.981Z,100081.00
2022-10-06T01:57:53.739Z,100076.00
2022-10-06T01:59:27.827Z,100068.00
2022-10-06T02:01:07.084Z,100073.00
2022-10-06T02:02:42.738Z,100081.00
2022-10-06T02:04:16.346Z,100094.00
2022-10-06T02:05:50.560Z,100085.00
2022-10-06T02:07:26.732Z,100085.00
2022-10-06T02:09:02.651Z,100094.00
2022-10-06T02:10:37.394Z,100097.00
2022-10-06T02:12:15.871Z,100087.00
2022-10-06T02:13:48.456Z,100095.00
2022-10-06T02:15:22.648Z,100088.00
2022-10-06T02:16:57.015Z,100097.00
2022-10-06T02:18:31.078Z,100101.00
2022-10-06T02:20:04.451Z,100094.00
2022-10-06T02:21:37.784Z,100099.00
2022-10-06T02:23:10.343Z,100100.00
2022-10-06T02:24:43.815Z,100100.00
2022-10-06T02:26:19.981Z,100106.00
2022-10-06T02:27:56.190Z,100110.00
2022-10-06T02:29:29.484Z,100113.00
2022-10-06T02:31:02.639Z,100111.00
2022-10-06T02:32:37.375Z,100114.00
2022-10-06T02:34:10.861Z,100114.00
2022-10-06T02:35:44.313Z,100114.00
2022-10-06T02:37:18.740Z,100126.00
2022-10-06T02:38:52.159Z,100132.00
2022-10-06T02:40:25.851Z,100135.00
2022-10-06T02:41:59.488Z,100137.00
2022-10-06T02:43:33.208Z,100146.00
2022-10-06T02:45:08.795Z,100142.00
2022-10-06T02:46:42.899Z,100133.00
2022-10-06T02:48:16.449Z,100147.00
2022-10-06T02:49:50.320Z,100140.00
2022-10-06T02:51:24.334Z,100136.00
2022-10-06T02:52:58.035Z,100150.00
2022-10-06T02:54:30.568Z,100148.00
2022-10-06T02:56:08.340Z,100145.00
2022-10-06T02:57:43.731Z,100148.00
2022-10-06T02:59:17.176Z,100147.00
2022-10-06T03:00:50.462Z,100154.00
2022-10-06T03:02:24.427Z,100169.00
2022-10-06T03:03:57.123Z,100162.00
2022-10-06T03:05:31.097Z,100164.00
2022-10-06T03:07:04.508Z,100169.00
2022-10-06T03:08:42.288Z,100171.00
2022-10-06T03:10:15.727Z,100172.00
2022-10-06T03:11:48.158Z,100171.00
2022-10-06T03:13:30.253Z,100170.00
2022-10-06T03:15:02.668Z,100177.00
2022-10-06T03:16:39.601Z,100186.00
2022-10-06T03:18:16.729Z,100186.00
2022-10-06T03:19:50.060Z,100189.00
2022-10-06T03:21:31.252Z,100185.00
2022-10-06T03:23:04.656Z,100190.00
2022-10-06T03:24:38.526Z,100185.00
2022-10-06T03:26:13.031Z,100191.00
2022-10-06T03:27:46.320Z,100195.00
2022-10-06T03:29:20.985Z,100196.00
2022-10-06T03:31:02.779Z,100200.00
2022-10-06T03:32:37.354Z,100203.00
2022-10-06T03:34:11.057Z,100203.00
2022-10-06T03:35:44.345Z,100208.00
2022-10-06T03:37:19.041Z,100196.00
2022-10-06T03:38:52.841Z,100201.00
2022-10-06T03:40:26.188Z,100215.00
2022-10-06T03:41:59.581Z,100224.00
2022-10-06T03:43:32.508Z,100223.00
2022-10-06T03:45:09.398Z,100246.00
2022-10-06T03:46:42.850Z,100228.00
2022-10-06T03:48:15.758Z,100233.00
2022-10-06T03:49:49.056Z,100231.00
2022-10-06T03:51:26.053Z,100242.00
2022-10-06T03:52:59.871Z,100246.00
2022-10-06T03:54:33.423Z,100249.00
2022-10-06T03:56:09.132Z,100245.00
2022-10-06T03:57:42.527Z,100251.00
2022-10-06T03:59:17.368Z,100253.00
2022-10-06T04:01:01.159Z,100248.00
2022-10-06T04:02:34.589Z,100263.00
2022-10-06T04:04:08.769Z,100257.00
2022-10-06T04:05:55.374Z,100262.00
2022-10-06T04:07:29.440Z,100260.00
2022-10-06T04:09:03.564Z,100258.00
2022-10-06T04:10:37.549Z,100268.00
2022-10-06T04:12:10.922Z,100267.00
2022-10-06T04:13:45.347Z,100281.00
2022-10-06T04:15:18.769Z,100282.00
2022-10-06T04:16:53.576Z,100279.00
2022-10-06T04:18:30.921Z,100285.00
2022-10-06T04:20:05.229Z,100284.00
2022-10-06T04:21:41.003Z,100284.00
2022-10-06T04:23:17.209Z,100290.00
2022-10-06T04:24:50.842Z,100289.00
2022-10-06T04:26:31.438Z,100288.00
2022-10-06T04:28:04.118Z,100298.00
2022-10-06T04:29:37.806Z,100306.00
2022-10-06T04:31:20.070Z,100307.00
2022-10-06T04:32:54.925Z,100304.00
2022-10-06T04:34:28.473Z,100316.00
2022-10-06T04:36:06.521Z,100309.00
2022-10-06T04:37:41.010Z,100304.00
2022-10-06T04:39:15.188Z,100317.00
2022-10-06T04:40:52.565Z,100323.00
2022-10-06T04:42:32.566Z,100320.00
2022-10-06T04:44:09.096Z,100320.00
2022-10-06T04:45:42.643Z,100326.00
2022-10-06T04:47:16.161Z,100315.00
2022-10-06T04:48:52.266Z,100316.00
2022-10-06T04:50:26.023Z,100317.00
2022-10-06T04:52:11.784Z,100326.00
2022-10-06T04:53:48.350Z,100333.00
2022-10-06T04:55:22.516Z,100333.00
2022-10-06T04:56:56.617Z,100332.00
2022-10-06T04:58:34.985Z,100338.00
2022-10-06T05:00:24.834Z,100343.00
2022-10-06T05:01:59.666Z,100339.00
2022-10-06T05:03:33.396Z,100341.00
2022-10-06T05:05:07.958Z,100354.00
2022-10-06T05:06:43.895Z,100354.00
2022-10-06T05:08:18.384Z,100350.00
2022-10-06T05:09:52.281Z,100343.00
2022-10-06T05:11:30.428Z,100356.00
2022-10-06T05:13:05.941Z,100353.00
2022-10-06T05:14:39.440Z,100364.00
2022-10-06T05:16:16.000Z,100361.00
2022-10-06T05:17:52.909Z,100379.00
2022-10-06T05:19:26.493Z,100367.00
2022-10-06T05:21:06.633Z,100376.00
2022-10-06T05:22:40.412Z,100383.00
2022-10-06T05:24:13.703Z,100383.00
2022-10-06T05:25:52.458Z,100376.00
2022-10-06T05:27:26.492Z,100379.00
2022-10-06T05:29:00.231Z,100384.00
2022-10-06T05:30:33.528Z,100384.00
2022-10-06T05:32:07.161Z,100387.00
2022-10-06T05:33:43.129Z,100392.00
2022-10-06T05:35:16.673Z,100394.00
2022-10-06T05:36:51.727Z,100399.00
2022-10-06T05:38:25.574Z,100401.00
2022-10-06T05:39:58.910Z,100403.00
2022-10-06T05:41:34.804Z,100411.00
2022-10-06T05:43:10.120Z,100403.00
2022-10-06T05:44:43.547Z,100412.00
2022-10-06T05:46:23.558Z,100419.00
2022-10-06T05:47:58.245Z,100421.00
2022-10-06T05:49:31.574Z,100416.00
2022-10-06T05:51:11.353Z,100421.00
2022-10-06T05:52:46.997Z,100422.00
2022-10-06T05:54:20.392Z,100431.00
2022-10-06T05:55:53.794Z,100427.00
2022-10-06T05:57:28.825Z,100428.00
2022-10-06T05:59:04.742Z,100437.00
2022-10-06T06:00:37.741Z,100439.00
2022-10-06T06:02:11.138Z,100439.00
2022-10-06T06:03:51.131Z,100450.00
2022-10-06T06:05:24.514Z,100453.00
2022-10-06T06:06:58.272Z,100450.00
2022-10-06T06:08:34.497Z,100458.00
2022-10-06T06:10:09.888Z,100457.00
2022-10-06T06:11:47.524Z,100468.00
2022-10-06T06:13:22.359Z,100466.00
2022-10-06T06:15:22.166Z,100474.00
2022-10-06T06:17:02.259Z,100478.00
2022-10-06T06:18:38.580Z,100475.00
2022-10-06T06:20:14.220Z,100479.00
2022-10-06T06:21:47.597Z,100488.00
2022-10-06T06:23:19.925Z,100483.00
2022-10-06T06:24:54.649Z,100483.00
2022-10-06T06:26:30.471Z,100479.00
2022-10-06T06:28:03.789Z,100481.00
2022-10-06T06:29:38.109Z,100488.00
2022-10-06T06:31:19.725Z,100483.00
2022-10-06T06:33:00.338Z,100486.00
2022-10-06T06:34:34.184Z,100493.00
2022-10-06T06:36:15.009Z,100491.00
2022-10-06T06:37:48.967Z,100491.00
2022-10-06T06:39:22.324Z,100510.00
2022-10-06T06:40:58.568Z,100502.00
2022-10-06T06:42:31.992Z,100505.00
2022-10-06T06:44:24.661Z,100509.00
2022-10-06T06:46:05.147Z,100520.00
2022-10-06T06:47:53.414Z,100518.00
2022-10-06T06:49:27.218Z,100527.00
2022-10-06T06:51:06.293Z,100529.00
2022-10-06T06:52:41.806Z,100535.00
2022-10-06T06:54:19.379Z,100530.00
2022-10-06T06:55:57.985Z,100527.00
2022-10-06T06:57:31.320Z,100542.00
2022-10-06T06:59:12.027Z,100540.00
2022-10-06T07:00:49.076Z,100541.00
2022-10-06T07:02:26.494Z,100538.00
2022-10-06T07:04:00.241Z,100541.00
2022-10-06T07:05:39.909Z,100547.00
2022-10-06T07:07:13.613Z,100548.00
2022-10-06T07:08:50.752Z,100547.00
2022-10-06T07:10:27.633Z,100550.00
2022-10-06T07:12:02.773Z,100560.00
2022-10-06T07:13:35.753Z,100550.00
2022-10-06T07:15:28.016Z,100551.00
2022-10-06T07:17:19.212Z,100563.00
2022-10-06T07:19:13.520Z,100554.00
2022-10-06T07:21:04.604Z,100563.00
2022-10-06T07:22:55.593Z,100561.00
2022-10-06T07:24:46.848Z,100570.00
2022-10-06T07:26:20.205Z,100573.00
2022-10-06T07:27:56.533Z,100574.00
2022-10-06T07:29:34.469Z,100577.00
2022-10-06T07:31:08.305Z,100579.00
2022-10-06T07:32:42.121Z,100582.00
2022-10-06T07:34:15.700Z,100575.00
2022-10-06T07:35:49.065Z,100576.00
2022-10-06T07:37:25.043Z,100583.00
2022-10-06T07:38:59.182Z,100580.00
2022-10-06T07:40:33.430Z,100590.00
2022-10-06T07:42:10.156Z,100589.00
2022-10-06T07:43:46.842Z,100599.00
2022-10-06T07:45:42.147Z,100606.00
2022-10-06T07:47:19.756Z,100605.00
2022-10-06T07:49:00.700Z,100606.00
2022-10-06T07:50:35.589Z,100610.00
2022-10-06T07:52:09.201Z,100612.00
2022-10-06T07:53:44.927Z,100616.00
2022-10-06T07:55:25.312Z,100622.00
2022-10-06T07:57:14.948Z,100625.00
2022-10-06T07:58:51.410Z,100625.00
2022-10-06T08:00:26.626Z,100624.00
2022-10-06T08:02:00.554Z,100618.00
2022-10-06T08:03:34.506Z,100624.00
2022-10-06T08:05:09.180Z,100624.00
2022-10-06T08:06:42.924Z,100625.00
2022-10-06T08:08:17.765Z,100624.00
2022-10-06T08:09:51.199Z,100633.00
2022-10-06T08:11:24.807Z,100634.00
2022-10-06T08:12:58.175Z,100633.00
2022-10-06T08:14:32.913Z,100647.00
2022-10-06T08:16:07.805Z,100642.00
2022-10-06T08:17:42.278Z,100647.00
2022-10-06T08:19:18.123Z,100651.00
2022-10-06T08:20:51.740Z,100650.00
2022-10-06T08:22:27.367Z,100653.00
2022-10-06T08:24:03.071Z,100644.00
2022-10-06T08:25:42.502Z,100658.00
2022-10-06T08:27:15.931Z,100657.00
2022-10-06T08:28:54.090Z,100656.00
2022-10-06T08:30:28.916Z,100658.00
2022-10-06T08:32:02.967Z,100654.00
2022-10-06T08:33:38.218Z,100665.00
2022-10-06T08:35:12.277Z,100660.00
2022-10-06T08:37:02.274Z,100671.00
2022-10-06T08:38:40.030Z,100665.00
2022-10-06T08:40:16.634Z,100665.00
2022-10-06T08:41:54.656Z,100664.00
2022-10-06T08:43:31.166Z,100661.00
2022-10-06T08:45:15.151Z,100666.00
2022-10-06T08:47:00.459Z,100666.00
2022-10-06T08:48:38.835Z,100663.00
2022-10-06T08:50:13.772Z,100665.00
2022-10-06T08:52:00.942Z,100664.00
2022-10-06T08:53:46.749Z,100663.00
2022-10-06T08:55:36.403Z,100653.00
2022-10-06T08:57:20.749Z,100666.00
2022-10-06T08:58:58.925Z,100661.00
2022-10-06T09:00:34.070Z,100670.00
2022-10-06T09:02:30.410Z,100670.00
2022-10-06T09:04:07.882Z,100675.00
2022-10-06T09:05:41.604Z,100672.00
2022-10-06T09:07:24.067Z,100681.00
2022-10-06T09:09:04.592Z,100678.00
2022-10-06T09:10:49.293Z,100678.00
2022-10-06T09:12:35.132Z,100678.00
2022-10-06T09:14:21.132Z,100683.00
2022-10-06T09:16:01.544Z,100684.00
2022-10-06T09:17:42.029Z,100680.00
2022-10-06T09:19:20.351Z,100687.00
2022-10-06T09:20:59.735Z,100691.00
2022-10-06T09:22:33.918Z,100698.00
2022-10-06T09:24:14.527Z,100699.00
2022-10-06T09:25:49.765Z,100693.00
2022-10-06T09:27:27.706Z,100703.00
2022-10-06T09:29:01.712Z,100706.00
2022-10-06T09:30:35.167Z,100714.00
2022-10-06T09:32:10.894Z,100715.00
2022-10-06T09:33:46.372Z,100719.00
2022-10-06T09:35:23.497Z,100713.00
2022-10-06T09:37:03.138Z,100715.00
2022-10-06T09:38:53.816Z,100719.00
2022-10-06T09:40:39.897Z,100719.00
2022-10-06T09:42:19.297Z,100718.00
2022-10-06T09:43:58.180Z,100716.00
2022-10-06T09:45:31.518Z,100727.00
2022-10-06T09:47:32.980Z,100722.00
2022-10-06T09:49:19.752Z,100730.00
2022-10-06T09:51:13.804Z,100721.00
2022-10-06T09:53:18.525Z,100731.00
2022-10-06T09:55:10.016Z,100730.00
2022-10-06T09:56:47.315Z,100727.00
2022-10-06T09:58:31.492Z,100730.00
2022-10-06T10:00:27.289Z,100720.00
2022-10-06T10:02:04.569Z,100735.00
2022-10-06T10:04:20.594Z,100723.00
2022-10-06T10:05:56.679Z,100731.00
2022-10-06T10:07:33.067Z,100730.00
2022-10-06T10:09:28.731Z,100729.00
2022-10-06T10:11:39.249Z,100728.00
2022-10-06T10:13:21.952Z,100730.00
2022-10-06T10:14:59.567Z,100728.00
2022-10-06T10:16:36.477Z,100729.00
2022-10-06T10:18:19.876Z,100727.00
2022-10-06T10:19:56.000Z,100732.00
2022-10-06T10:21:37.013Z,100737.00
2022-10-06T10:23:32.156Z,100735.00
2022-10-06T10:25:28.209Z,100742.00
2022-10-06T10:27:14.431Z,100726.00
2022-10-06T10:29:34.993Z,100733.00
2022-10-06T10:31:18.708Z,100732.00
2022-10-06T10:33:02.321Z,100727.00
2022-10-06T10:35:04.188Z,100738.00
2022-10-06T10:36:50.789Z,100734.00
2022-10-06T10:38:26.860Z,100728.00
2022-10-06T10:40:11.154Z,100727.00
2022-10-06T10:41:50.843Z,100725.00
2022-10-06T10:43:33.489Z,100739.00
2022-10-06T10:45:18.708Z,100731.00
2022-10-06T10:47:01.702Z,100738.00
2022-10-06T10:48:43.255Z,100728.00
2022-10-06T10:50:27.909Z,100734.00
2022-10-06T10:52:11.757Z,100737.00
2022-10-06T10:53:52.593Z,100737.00
2022-10-06T10:55:34.154Z,100740.00
2022-10-06T10:57:14.931Z,100730.00
2022-10-06T10:58:54.617Z,100737.00
2022-10-06T11:00:34.563Z,100732.00
2022-10-06T11:02:16.647Z,100741.00
2022-10-06T11:03:56.762Z,100740.00
2022-10-06T11:05:47.710Z,100740.00
2022-10-06T11:07:31.279Z,100739.00
2022-10-06T11:09:11.812Z,100741.00
2022-10-06T11:10:52.103Z,100746.00
2022-10-06T11:12:55.959Z,100745.00
2022-10-06T11:14:51.689Z,100743.00
2022-10-06T11:16:38.669Z,100746.00
2022-10-06T11:18:26.456Z,100748.00
2022-10-06T11:20:14.278Z,100742.00
2022-10-06T11:21:59.528Z,100751.00
2022-10-06T11:23:49.629Z,100745.00
2022-10-06T11:25:34.196Z,100748.00
2022-10-06T11:27:25.769Z,100749.00
2022-10-06T11:29:16.875Z,100752.00
2022-10-06T11:31:04.835Z,100741.00
2022-10-06T11:32:53.224Z,100740.00
2022-10-06T11:34:26.701Z,100740.00
2022-10-06T11:36:02.764Z,100743.00
2022-10-06T11:37:47.724Z,100751.00
2022-10-06T11:39:32.845Z,100745.00
2022-10-06T11:41:14.300Z,100742.00
2022-10-06T11:42:56.804Z,100739.00
2022-10-06T11:44:40.257Z,100744.00
2022-10-06T11:46:35.620Z,100741.00
2022-10-06T11:48:27.760Z,100745.00
2022-10-06T11:50:01.334Z,100734.00
2022-10-06T11:51:34.996Z,100736.00
2022-10-06T11:53:28.696Z,100741.00
2022-10-06T11:55:20.668Z,100745.00
2022-10-06T11:56:54.343Z,100744.00
2022-10-06T11:58:41.892Z,100740.00
2022-10-06T12:00:49.758Z,100736.00
2022-10-06T12:02:39.807Z,100746.00
2022-10-06T12:04:20.728Z,100734.00
2022-10-06T12:05:58.359Z,100739.00
2022-10-06T12:08:16.749Z,100734.00
2022-10-06T12:09:53.161Z,100742.00
2022-10-06T12:11:43.768Z,100737.00
2022-10-06T12:14:12.335Z,100743.00
2022-10-06T12:17:52.981Z,100738.00
2022-10-06T12:19:34.879Z,100749.00
2022-10-06T12:21:25.993Z,100732.00
2022-10-06T12:23:15.281Z,100736.00
2022-10-06T12:25:00.028Z,100728.00
2022-10-06T12:26:55.909Z,100736.00
2022-10-06T12:28:40.535Z,100742.00
2022-10-06T12:30:24.480Z,100742.00
2022-10-06T12:32:14.273Z,100737.00
2022-10-06T12:33:48.341Z,100733.00
2022-10-06T12:35:30.006Z,100725.00
2022-10-06T12:37:37.401Z,100729.00
2022-10-06T12:39:25.130Z,100730.00
2022-10-06T12:40:59.472Z,100731.00
2022-10-06T12:42:34.562Z,100728.00
2022-10-06T12:44:25.856Z,100728.00
2022-10-06T12:46:05.128Z,100727.00
2022-10-06T12:47:44.392Z,100729.00
2022-10-06T12:49:43.937Z,100721.00
2022-10-06T12:53:19.848Z,100724.00
2022-10-06T12:55:08.428Z,100725.00
2022-10-06T12:56:44.328Z,100718.00
2022-10-06T12:58:22.129Z,100726.00
2022-10-06T12:59:55.700Z,100716.00
2022-10-06T13:01:29.445Z,100721.00
2022-10-06T13:03:06.165Z,100719.00
2022-10-06T13:04:44.888Z,100714.00
2022-10-06T13:06:24.767Z,100722.00
2022-10-06T13:08:01.174Z,100718.00
2022-10-06T13:09:35.009Z,100718.00
2022-10-06T13:11:21.418Z,100712.00
2022-10-06T13:12:57.792Z,100714.00
2022-10-06T13:14:32.500Z,100709.00
2022-10-06T13:16:06.187Z,100720.00
2022-10-06T13:17:43.744Z,100720.00
2022-10-06T13:19:21.973Z,100718.00
2022-10-06T13:20:57.462Z,100722.00
2022-10-06T13:22:30.806Z,100716.00
2022-10-06T13:24:05.260Z,100722.00
2022-10-06T13:25:45.399Z,100720.00
2022-10-06T13:27:19.084Z,100725.00
2022-10-06T13:28:54.852Z,100731.00
2022-10-06T13:30:32.787Z,100716.00
2022-10-06T13:32:19.087Z,100718.00
2022-10-06T13:33:58.125Z,100719.00
2022-10-06T13:35:33.097Z,100716.00
2022-10-06T13:37:06.601Z,100718.00
2022-10-06T13:38:41.670Z,100706.00
2022-10-06T13:40:46.202Z,100714.00
2022-10-06T13:42:22.250Z,100715.00
2022-10-06T13:44:00.160Z,100726.00
2022-10-06T13:45:34.917Z,100714.00
2022-10-06T13:47:18.182Z,100718.00
2022-10-06T13:48:56.616Z,100714.00
2022-10-06T13:50:31.101Z,100715.00
2022-10-06T13:52:16.211Z,100715.00
2022-10-06T13:53:51.280Z,100715.00
2022-10-06T13:55:27.357Z,100719.00
2022-10-06T13:57:00.935Z,100718.00
2022-10-06T13:58:36.078Z,100715.00
2022-10-06T14:00:21.204Z,100710.00
2022-10-06T14:01:57.304Z,100720.00
2022-10-06T14:05:34.138Z,100720.00
2022-10-06T14:07:15.191Z,100725.00
2022-10-06T14:08:55.532Z,100719.00
2022-10-06T14:10:35.192Z,100716.00
2022-10-06T14:12:16.002Z,100714.00
2022-10-06T14:13:55.888Z,100722.00
2022-10-06T14:15:39.382Z,100713.00
2022-10-06T14:17:23.919Z,100710.00
2022-10-06T14:19:00.059Z,100716.00
2022-10-06T14:20:48.895Z,100712.00
2022-10-06T14:22:34.234Z,100718.00
2022-10-06T14:24:26.032Z,100713.00
2022-10-06T14:26:00.348Z,100716.00
2022-10-06T14:27:34.476Z,100705.00
2022-10-06T14:29:08.624Z,100710.00
2022-10-06T14:30:42.424Z,100709.00
2022-10-06T14:32:19.130Z,100704.00
2022-10-06T14:33:54.649Z,100711.00
2022-10-06T14:35:28.320Z,100704.00
2022-10-06T14:37:01.789Z,100708.00
2022-10-06T14:38:35.008Z,100707.00
2022-10-06T14:40:12.098Z,100704.00
2022-10-06T14:41:46.303Z,100712.00
2022-10-06T14:43:19.741Z,100705.00
2022-10-06T14:44:53.083Z,100715.00
2022-10-06T14:46:27.138Z,100705.00
2022-10-06T14:48:01.827Z,100707.00
2022-10-06T14:49:37.642Z,100703.00
2022-10-06T14:51:11.283Z,100709.00
2022-10-06T14:52:44.928Z,100704.00
2022-10-06T14:54:19.205Z,100703.00
2022-10-06T14:55:52.716Z,100712.00
2022-10-06T14:57:26.201Z,100708.00
2022-10-06T14:59:02.534Z,100710.00
2022-10-06T15:00:37.746Z,100716.00
2022-10-06T15:02:12.115Z,100709.00
2022-10-06T15:03:52.813Z,100709.00
2022-10-06T15:05:26.484Z,100711.00
2022-10-06T15:07:17.421Z,100721.00
2022-10-06T15:08:51.260Z,100717.00
2022-10-06T15:10:25.061Z,100719.00
2022-10-06T15:11:58.377Z,100706.00
2022-10-06T15:13:32.424Z,100712.00
2022-10-06T15:15:07.744Z,100710.00
2022-10-06T15:16:43.662Z,100710.00
2022-10-06T15:18:16.866Z,100709.00
2022-10-06T15:19:51.871Z,100708.00
2022-10-06T15:21:25.793Z,100717.00
2022-10-06T15:22:59.103Z,100707.00
2022-10-06T15:24:35.433Z,100705.00
2022-10-06T15:26:30.152Z,100712.00
2022-10-06T15:28:23.536Z,100706.00
2022-10-06T15:29:57.357Z,100716.00
2022-10-06T15:31:36.334Z,100711.00
2022-10-06T15:33:09.766Z,100704.00
2022-10-06T15:34:45.137Z,100702.00
2022-10-06T15:36:23.317Z,100704.00
2022-10-06T15:37:56.644Z,100699.00
2022-10-06T15:39:32.326Z,100698.00
2022-10-06T15:41:04.712Z,100692.00
2022-10-06T15:42:38.585Z,100698.00
2022-10-06T15:44:15.357Z,100697.00
2022-10-06T15:45:55.448Z,100691.00
2022-10-06T15:47:29.222Z,100694.00
2022-10-06T15:49:06.194Z,100691.00
2022-10-06T15:50:40.768Z,100698.00
2022-10-06T15:52:17.481Z,100699.00
2022-10-06T15:53:51.649Z,100696.00
2022-10-06T15:55:24.871Z,100689.00
2022-10-06T15:57:00.782Z,100692.00
2022-10-06T15:58:34.162Z,100692.00
2022-10-06T16:00:10.659Z,100693.00
2022-10-06T16:01:48.349Z,100695.00
2022-10-06T16:03:40.081Z,100696.00
2022-10-06T16:05:45.684Z,100689.00
2022-10-06T16:07:21.786Z,100696.00
2022-10-06T16:08:54.728Z,100696.00
2022-10-06T16:10:28.108Z,100696.00
2022-10-06T16:12:03.736Z,100701.00
2022-10-06T16:13:35.973Z,100696.00
2022-10-06T16:15:10.761Z,100703.00
2022-10-06T16:16:44.423Z,100704.00
2022-10-06T16:18:17.873Z,100693.00
2022-10-06T16:19:51.234Z,100702.00
2022-10-06T16:21:24.544Z,100699.00
2022-10-06T16:22:59.403Z,100712.00
2022-10-06T16:24:32.746Z,100707.00
2022-10-06T16:26:06.708Z,100701.00
2022-10-06T16:27:40.374Z,100698.00
2022-10-06T16:29:14.246Z,100701.00
2022-10-06T16:30:56.188Z,100697.00
2022-10-06T16:32:29.594Z,100700.00
2022-10-06T16:34:04.861Z,100699.00
2022-10-06T16:35:38.876Z,100696.00
2022-10-06T16:37:13.153Z,100691.00
2022-10-06T16:38:51.817Z,100702.00
2022-10-06T16:40:25.070Z,100696.00
2022-10-06T16:41:58.853Z,100703.00
2022-10-06T16:43:33.831Z,100707.00
2022-10-06T16:45:18.542Z,100710.00
2022-10-06T16:47:02.524Z,100718.00
2022-10-06T16:48:41.210Z,100719.00
2022-10-06T16:50:14.736Z,100713.00
2022-10-06T16:51:48.477Z,100723.00
2022-10-06T16:53:22.594Z,100721.00
2022-10-06T16:54:58.483Z,100724.00
2022-10-06T16:56:35.248Z,100724.00
2022-10-06T16:58:09.690Z,100729.00
2022-10-06T16:59:46.594Z,100714.00
2022-10-06T17:01:22.812Z,100724.00
2022-10-06T17:02:56.053Z,100720.00
2022-10-06T17:04:30.029Z,100714.00
2022-10-06T17:06:10.880Z,100717.00
2022-10-06T17:07:44.813Z,100724.00
2022-10-06T17:09:20.563Z,100729.00
2022-10-06T17:11:03.418Z,100728.00
2022-10-06T17:12:37.049Z,100726.00
2022-10-06T17:14:11.529Z,100727.00
2022-10-06T17:15:44.792Z,100727.00
2022-10-06T17:17:18.291Z,100729.00
2022-10-06T17:18:54.112Z,100727.00
2022-10-06T17:20:27.401Z,100725.00
2022-10-06T17:22:00.820Z,100721.00
2022-10-06T17:23:34.970Z,100730.00
2022-10-06T17:25:09.029Z,100740.00
2022-10-06T17:26:46.589Z,100735.00
2022-10-06T17:28:20.025Z,100724.00
2022-10-06T17:29:53.306Z,100730.00
2022-10-06T17:31:32.352Z,100728.00
2022-10-06T17:33:06.292Z,100732.00
2022-10-06T17:34:40.856Z,100727.00
2022-10-06T17:36:18.134Z,100731.00
2022-10-06T17:37:51.448Z,100730.00
2022-10-06T17:39:25.384Z,100734.00
2022-10-06T17:40:58.752Z,100728.00
2022-10-06T17:42:33.431Z,100728.00
2022-10-06T17:44:09.728Z,100730.00
2022-10-06T17:45:43.687Z,100730.00
2022-10-06T17:47:17.522Z,100736.00
2022-10-06T17:48:57.084Z,100739.00
2022-10-06T17:50:30.338Z,100738.00
2022-10-06T17:52:04.737Z,100733.00
2022-10-06T17:53:42.010Z,100741.00
2022-10-06T17:55:16.540Z,100727.00
2022-10-06T17:56:54.089Z,100739.00
2022-10-06T17:58:30.081Z,100740.00
2022-10-06T18:00:14.124Z,100729.00
2022-10-06T18:01:47.613Z,100738.00
2022-10-06T18:03:26.511Z,100742.00
2022-10-06T18:05:00.833Z,100740.00
2022-10-06T18:06:37.289Z,100748.00
2022-10-06T18:08:13.036Z,100746.00
2022-10-06T18:10:07.115Z,100746.00
2022-10-06T18:11:42.972Z,100745.00
2022-10-06T18:13:16.062Z,100743.00
2022-10-06T18:14:51.044Z,100740.00
2022-10-06T18:16:26.408Z,100745.00
2022-10-06T18:17:59.833Z,100741.00
2022-10-06T18:19:36.142Z,100735.00
2022-10-06T18:21:08.559Z,100722.00
2022-10-06T18:22:42.298Z,100730.00
2022-10-06T18:24:20.799Z,100731.00
2022-10-06T18:25:54.206Z,100735.00
2022-10-06T18:27:27.770Z,100731.00
2022-10-06T18:29:01.136Z,100724.00
2022-10-06T18:30:37.896Z,100741.00
2022-10-06T18:36:12.389Z,100739.00
2022-10-06T18:37:47.810Z,100740.00
2022-10-06T18:39:21.749Z,100739.00
2022-10-06T18:40:57.808Z,100735.00
2022-10-06T18:42:31.140Z,100734.00
2022-10-06T18:44:05.685Z,100729.00
2022-10-06T18:46:09.750Z,100735.00
2022-10-06T18:48:01.077Z,100731.00
2022-10-06T18:49:34.580Z,100743.00
2022-10-06T18:51:07.413Z,100732.00